sensor_id;sensor_type;location;lat;lon;timestamp;P1;durP1;ratioP1;P2;durP2;ratioP2
58063;SDS011;43851;55.856;37.186;2022-08-26T00:00:01;23.10;;;17.55;;
58063;SDS011;43851;55.856;37.186;2022-08-26T00:02:38;25.48;;;19.38;;
58063;SDS011;43851;55.856;37.186;2022-08-26T00:05:04;21.48;;;18.98;;
58063;SDS011;43851;55.856;37.186;2022-08-26T00:07:30;22.88;;;18.13;;
58063;SDS011;43851;55.856;37.186;2022-08-26T00:09:56;26.30;;;19.77;;
58063;SDS011;43851;55.856;37.186;2022-08-26T00:12:23;21.42;;;19.05;;
58063;SDS011;43851;55.856;37.186;2022-08-26T00:14:49;23.88;;;19.83;;
58063;SDS011;43851;55.856;37.186;2022-08-26T00:17:15;21.10;;;18.90;;
58063;SDS011;43851;55.856;37.186;2022-08-26T00:19:41;21.08;;;18.70;;
58063;SDS011;43851;55.856;37.186;2022-08-26T00:22:07;25.27;;;19.25;;
58063;SDS011;43851;55.856;37.186;2022-08-26T00:24:33;25.52;;;19.80;;
58063;SDS011;43851;55.856;37.186;2022-08-26T00:26:59;25.48;;;20.00;;
58063;SDS011;43851;55.856;37.186;2022-08-26T00:29:24;25.02;;;19.42;;
58063;SDS011;43851;55.856;37.186;2022-08-26T00:31:50;27.33;;;20.55;;
58063;SDS011;43851;55.856;37.186;2022-08-26T00:34:16;22.42;;;17.75;;
58063;SDS011;43851;55.856;37.186;2022-08-26T00:36:42;21.33;;;18.75;;
58063;SDS011;43851;55.856;37.186;2022-08-26T00:39:08;22.77;;;19.35;;
58063;SDS011;43851;55.856;37.186;2022-08-26T00:41:37;25.60;;;19.33;;
58063;SDS011;43851;55.856;37.186;2022-08-26T00:44:04;22.95;;;19.30;;
58063;SDS011;43851;55.856;37.186;2022-08-26T00:46:33;22.45;;;19.02;;
58063;SDS011;43851;55.856;37.186;2022-08-26T00:49:13;21.13;;;19.00;;
58063;SDS011;43851;55.856;37.186;2022-08-26T00:51:46;27.05;;;19.67;;
58063;SDS011;43851;55.856;37.186;2022-08-26T00:54:20;22.33;;;19.17;;
58063;SDS011;43851;55.856;37.186;2022-08-26T00:56:59;22.60;;;20.13;;
58063;SDS011;43851;55.856;37.186;2022-08-26T00:59:27;25.48;;;20.27;;
58063;SDS011;43851;55.856;37.186;2022-08-26T01:01:55;24.10;;;20.65;;
58063;SDS011;43851;55.856;37.186;2022-08-26T01:04:22;21.48;;;19.25;;
58063;SDS011;43851;55.856;37.186;2022-08-26T01:06:49;24.58;;;18.95;;
58063;SDS011;43851;55.856;37.186;2022-08-26T01:09:17;24.65;;;19.88;;
58063;SDS011;43851;55.856;37.186;2022-08-26T01:11:45;22.08;;;18.75;;
58063;SDS011;43851;55.856;37.186;2022-08-26T01:14:13;21.55;;;19.33;;
58063;SDS011;43851;55.856;37.186;2022-08-26T01:16:41;23.67;;;17.67;;
58063;SDS011;43851;55.856;37.186;2022-08-26T01:19:50;25.48;;;19.50;;
58063;SDS011;43851;55.856;37.186;2022-08-26T01:22:04;25.02;;;19.42;;
58063;SDS011;43851;55.856;37.186;2022-08-26T01:24:34;22.52;;;18.83;;
58063;SDS011;43851;55.856;37.186;2022-08-26T01:27:03;21.38;;;18.83;;
58063;SDS011;43851;55.856;37.186;2022-08-26T01:29:32;23.92;;;19.83;;
58063;SDS011;43851;55.856;37.186;2022-08-26T01:31:59;22.30;;;19.77;;
58063;SDS011;43851;55.856;37.186;2022-08-26T01:34:27;27.17;;;20.35;;
58063;SDS011;43851;55.856;37.186;2022-08-26T01:37:03;20.45;;;18.27;;
58063;SDS011;43851;55.856;37.186;2022-08-26T01:39:36;24.88;;;20.70;;
58063;SDS011;43851;55.856;37.186;2022-08-26T01:42:04;22.88;;;18.33;;
58063;SDS011;43851;55.856;37.186;2022-08-26T01:44:36;27.00;;;18.42;;
58063;SDS011;43851;55.856;37.186;2022-08-26T01:47:08;24.48;;;19.27;;
58063;SDS011;43851;55.856;37.186;2022-08-26T01:49:34;22.67;;;20.27;;
58063;SDS011;43851;55.856;37.186;2022-08-26T01:52:03;21.67;;;19.23;;
58063;SDS011;43851;55.856;37.186;2022-08-26T01:54:29;24.05;;;19.05;;
58063;SDS011;43851;55.856;37.186;2022-08-26T01:56:56;23.80;;;19.75;;
58063;SDS011;43851;55.856;37.186;2022-08-26T01:59:23;26.15;;;20.27;;
58063;SDS011;43851;55.856;37.186;2022-08-26T02:01:50;22.20;;;19.67;;
58063;SDS011;43851;55.856;37.186;2022-08-26T02:04:21;25.33;;;18.98;;
58063;SDS011;43851;55.856;37.186;2022-08-26T02:06:50;26.60;;;20.33;;
58063;SDS011;43851;55.856;37.186;2022-08-26T02:09:19;24.55;;;20.25;;
58063;SDS011;43851;55.856;37.186;2022-08-26T02:11:45;22.70;;;18.83;;
58063;SDS011;43851;55.856;37.186;2022-08-26T02:14:12;26.42;;;19.45;;
58063;SDS011;43851;55.856;37.186;2022-08-26T02:16:41;24.58;;;19.33;;
58063;SDS011;43851;55.856;37.186;2022-08-26T02:19:18;21.70;;;18.35;;
58063;SDS011;43851;55.856;37.186;2022-08-26T02:21:47;35.50;;;19.73;;
58063;SDS011;43851;55.856;37.186;2022-08-26T02:24:15;25.80;;;19.63;;
58063;SDS011;43851;55.856;37.186;2022-08-26T02:26:44;25.60;;;20.05;;
58063;SDS011;43851;55.856;37.186;2022-08-26T02:29:34;25.98;;;19.20;;
58063;SDS011;43851;55.856;37.186;2022-08-26T02:32:06;21.77;;;19.15;;
58063;SDS011;43851;55.856;37.186;2022-08-26T02:34:33;20.50;;;16.95;;
58063;SDS011;43851;55.856;37.186;2022-08-26T02:37:00;22.88;;;17.85;;
58063;SDS011;43851;55.856;37.186;2022-08-26T02:39:28;25.55;;;19.48;;
58063;SDS011;43851;55.856;37.186;2022-08-26T02:41:55;24.20;;;18.40;;
58063;SDS011;43851;55.856;37.186;2022-08-26T02:44:22;23.92;;;18.90;;
58063;SDS011;43851;55.856;37.186;2022-08-26T02:46:47;19.75;;;17.70;;
58063;SDS011;43851;55.856;37.186;2022-08-26T02:49:14;21.83;;;17.85;;
58063;SDS011;43851;55.856;37.186;2022-08-26T02:51:40;22.00;;;18.05;;
58063;SDS011;43851;55.856;37.186;2022-08-26T02:54:06;21.75;;;17.92;;
58063;SDS011;43851;55.856;37.186;2022-08-26T02:56:32;25.17;;;18.02;;
58063;SDS011;43851;55.856;37.186;2022-08-26T02:58:59;24.77;;;18.10;;
58063;SDS011;43851;55.856;37.186;2022-08-26T03:01:26;22.70;;;17.40;;
58063;SDS011;43851;55.856;37.186;2022-08-26T03:03:57;20.70;;;17.85;;
58063;SDS011;43851;55.856;37.186;2022-08-26T03:06:23;22.48;;;17.55;;
58063;SDS011;43851;55.856;37.186;2022-08-26T03:08:49;21.83;;;17.98;;
58063;SDS011;43851;55.856;37.186;2022-08-26T03:11:15;21.52;;;17.33;;
58063;SDS011;43851;55.856;37.186;2022-08-26T03:13:43;23.70;;;17.55;;
58063;SDS011;43851;55.856;37.186;2022-08-26T03:16:10;19.48;;;17.45;;
58063;SDS011;43851;55.856;37.186;2022-08-26T03:18:35;20.27;;;17.25;;
58063;SDS011;43851;55.856;37.186;2022-08-26T03:21:08;23.65;;;17.92;;
58063;SDS011;43851;55.856;37.186;2022-08-26T03:23:39;19.73;;;16.27;;
58063;SDS011;43851;55.856;37.186;2022-08-26T03:26:06;29.25;;;17.05;;
58063;SDS011;43851;55.856;37.186;2022-08-26T03:28:35;22.15;;;17.23;;
58063;SDS011;43851;55.856;37.186;2022-08-26T03:31:01;23.20;;;16.73;;
58063;SDS011;43851;55.856;37.186;2022-08-26T03:33:27;21.27;;;16.88;;
58063;SDS011;43851;55.856;37.186;2022-08-26T03:35:53;21.67;;;16.95;;
58063;SDS011;43851;55.856;37.186;2022-08-26T03:38:21;20.30;;;16.45;;
58063;SDS011;43851;55.856;37.186;2022-08-26T03:40:49;17.90;;;16.08;;
58063;SDS011;43851;55.856;37.186;2022-08-26T03:43:19;21.33;;;16.00;;
58063;SDS011;43851;55.856;37.186;2022-08-26T03:45:46;18.52;;;14.88;;
58063;SDS011;43851;55.856;37.186;2022-08-26T03:48:12;25.80;;;15.38;;
58063;SDS011;43851;55.856;37.186;2022-08-26T03:50:38;22.30;;;14.63;;
58063;SDS011;43851;55.856;37.186;2022-08-26T03:53:03;22.13;;;15.05;;
58063;SDS011;43851;55.856;37.186;2022-08-26T03:55:30;21.42;;;15.95;;
58063;SDS011;43851;55.856;37.186;2022-08-26T03:57:58;18.85;;;15.48;;
58063;SDS011;43851;55.856;37.186;2022-08-26T04:00:24;20.70;;;15.57;;
58063;SDS011;43851;55.856;37.186;2022-08-26T04:02:50;19.40;;;17.33;;
58063;SDS011;43851;55.856;37.186;2022-08-26T04:05:17;24.73;;;17.85;;
58063;SDS011;43851;55.856;37.186;2022-08-26T04:07:45;20.98;;;16.77;;
58063;SDS011;43851;55.856;37.186;2022-08-26T04:10:12;20.88;;;15.55;;
58063;SDS011;43851;55.856;37.186;2022-08-26T04:12:41;19.77;;;14.85;;
58063;SDS011;43851;55.856;37.186;2022-08-26T04:15:08;23.25;;;16.83;;
58063;SDS011;43851;55.856;37.186;2022-08-26T04:17:36;22.35;;;16.58;;
58063;SDS011;43851;55.856;37.186;2022-08-26T04:20:03;23.38;;;17.10;;
58063;SDS011;43851;55.856;37.186;2022-08-26T04:22:30;20.85;;;16.10;;
58063;SDS011;43851;55.856;37.186;2022-08-26T04:24:56;18.70;;;16.10;;
58063;SDS011;43851;55.856;37.186;2022-08-26T04:27:22;18.98;;;16.10;;
58063;SDS011;43851;55.856;37.186;2022-08-26T04:29:48;20.60;;;16.63;;
58063;SDS011;43851;55.856;37.186;2022-08-26T04:32:14;21.92;;;17.08;;
58063;SDS011;43851;55.856;37.186;2022-08-26T04:34:40;21.05;;;16.90;;
58063;SDS011;43851;55.856;37.186;2022-08-26T04:37:06;20.80;;;15.82;;
58063;SDS011;43851;55.856;37.186;2022-08-26T04:39:34;21.20;;;16.05;;
58063;SDS011;43851;55.856;37.186;2022-08-26T04:42:00;23.20;;;15.75;;
58063;SDS011;43851;55.856;37.186;2022-08-26T04:44:27;23.38;;;16.70;;
58063;SDS011;43851;55.856;37.186;2022-08-26T04:46:55;23.23;;;16.20;;
58063;SDS011;43851;55.856;37.186;2022-08-26T04:49:21;24.55;;;16.90;;
58063;SDS011;43851;55.856;37.186;2022-08-26T04:51:47;23.75;;;16.38;;
58063;SDS011;43851;55.856;37.186;2022-08-26T04:54:13;22.30;;;15.75;;
58063;SDS011;43851;55.856;37.186;2022-08-26T04:56:40;21.40;;;15.93;;
58063;SDS011;43851;55.856;37.186;2022-08-26T04:59:08;21.52;;;16.27;;
58063;SDS011;43851;55.856;37.186;2022-08-26T05:01:38;21.02;;;15.73;;
58063;SDS011;43851;55.856;37.186;2022-08-26T05:04:06;27.85;;;16.13;;
58063;SDS011;43851;55.856;37.186;2022-08-26T05:06:32;21.60;;;16.15;;
58063;SDS011;43851;55.856;37.186;2022-08-26T05:08:58;21.05;;;16.10;;
58063;SDS011;43851;55.856;37.186;2022-08-26T05:11:24;25.23;;;15.13;;
58063;SDS011;43851;55.856;37.186;2022-08-26T05:13:50;26.77;;;16.13;;
58063;SDS011;43851;55.856;37.186;2022-08-26T05:16:15;25.80;;;15.38;;
58063;SDS011;43851;55.856;37.186;2022-08-26T05:18:42;19.67;;;15.73;;
58063;SDS011;43851;55.856;37.186;2022-08-26T05:21:14;21.23;;;15.40;;
58063;SDS011;43851;55.856;37.186;2022-08-26T05:23:41;21.10;;;14.73;;
58063;SDS011;43851;55.856;37.186;2022-08-26T05:26:07;26.55;;;14.30;;
58063;SDS011;43851;55.856;37.186;2022-08-26T05:28:33;21.20;;;13.68;;
58063;SDS011;43851;55.856;37.186;2022-08-26T05:31:00;32.58;;;14.60;;
58063;SDS011;43851;55.856;37.186;2022-08-26T05:33:26;29.88;;;14.45;;
58063;SDS011;43851;55.856;37.186;2022-08-26T05:35:52;19.10;;;15.13;;
58063;SDS011;43851;55.856;37.186;2022-08-26T05:38:18;20.25;;;13.95;;
58063;SDS011;43851;55.856;37.186;2022-08-26T05:40:46;23.25;;;13.02;;
58063;SDS011;43851;55.856;37.186;2022-08-26T05:43:15;22.30;;;13.60;;
58063;SDS011;43851;55.856;37.186;2022-08-26T05:45:43;19.75;;;13.35;;
58063;SDS011;43851;55.856;37.186;2022-08-26T05:48:14;20.50;;;13.63;;
58063;SDS011;43851;55.856;37.186;2022-08-26T05:50:42;25.02;;;13.20;;
58063;SDS011;43851;55.856;37.186;2022-08-26T05:53:10;23.98;;;13.70;;
58063;SDS011;43851;55.856;37.186;2022-08-26T05:55:41;19.20;;;12.18;;
58063;SDS011;43851;55.856;37.186;2022-08-26T05:58:18;21.23;;;13.32;;
58063;SDS011;43851;55.856;37.186;2022-08-26T06:00:46;19.27;;;12.40;;
58063;SDS011;43851;55.856;37.186;2022-08-26T06:03:31;17.83;;;11.75;;
58063;SDS011;43851;55.856;37.186;2022-08-26T06:06:01;24.67;;;12.85;;
58063;SDS011;43851;55.856;37.186;2022-08-26T06:08:28;17.52;;;11.25;;
58063;SDS011;43851;55.856;37.186;2022-08-26T06:10:54;19.08;;;11.05;;
58063;SDS011;43851;55.856;37.186;2022-08-26T06:13:25;20.33;;;11.45;;
58063;SDS011;43851;55.856;37.186;2022-08-26T06:15:53;18.17;;;10.88;;
58063;SDS011;43851;55.856;37.186;2022-08-26T06:18:20;22.33;;;11.27;;
58063;SDS011;43851;55.856;37.186;2022-08-26T06:20:59;19.33;;;11.85;;
58063;SDS011;43851;55.856;37.186;2022-08-26T06:23:34;17.40;;;10.13;;
58063;SDS011;43851;55.856;37.186;2022-08-26T06:26:19;17.48;;;10.88;;
58063;SDS011;43851;55.856;37.186;2022-08-26T06:28:45;20.05;;;11.43;;
58063;SDS011;43851;55.856;37.186;2022-08-26T06:31:10;22.67;;;10.40;;
58063;SDS011;43851;55.856;37.186;2022-08-26T06:33:37;17.13;;;9.23;;
58063;SDS011;43851;55.856;37.186;2022-08-26T06:36:03;17.83;;;9.70;;
58063;SDS011;43851;55.856;37.186;2022-08-26T06:38:28;17.38;;;9.85;;
58063;SDS011;43851;55.856;37.186;2022-08-26T06:40:55;15.20;;;9.30;;
58063;SDS011;43851;55.856;37.186;2022-08-26T06:43:22;13.82;;;9.57;;
58063;SDS011;43851;55.856;37.186;2022-08-26T06:45:50;14.88;;;9.73;;
58063;SDS011;43851;55.856;37.186;2022-08-26T06:48:17;10.55;;;9.50;;
58063;SDS011;43851;55.856;37.186;2022-08-26T06:50:45;15.60;;;8.98;;
58063;SDS011;43851;55.856;37.186;2022-08-26T06:53:11;15.23;;;9.10;;
58063;SDS011;43851;55.856;37.186;2022-08-26T06:55:41;15.40;;;8.95;;
58063;SDS011;43851;55.856;37.186;2022-08-26T06:58:08;17.33;;;9.15;;
58063;SDS011;43851;55.856;37.186;2022-08-26T07:00:35;12.07;;;9.90;;
58063;SDS011;43851;55.856;37.186;2022-08-26T07:03:02;10.40;;;9.13;;
58063;SDS011;43851;55.856;37.186;2022-08-26T07:05:28;14.55;;;8.70;;
58063;SDS011;43851;55.856;37.186;2022-08-26T07:07:54;11.10;;;8.82;;
58063;SDS011;43851;55.856;37.186;2022-08-26T07:10:21;12.98;;;8.60;;
58063;SDS011;43851;55.856;37.186;2022-08-26T07:12:46;12.50;;;9.05;;
58063;SDS011;43851;55.856;37.186;2022-08-26T07:15:13;24.83;;;9.43;;
58063;SDS011;43851;55.856;37.186;2022-08-26T07:17:39;17.40;;;9.20;;
58063;SDS011;43851;55.856;37.186;2022-08-26T07:20:05;14.00;;;8.82;;
58063;SDS011;43851;55.856;37.186;2022-08-26T07:22:33;11.23;;;8.30;;
58063;SDS011;43851;55.856;37.186;2022-08-26T07:25:02;9.80;;;8.80;;
58063;SDS011;43851;55.856;37.186;2022-08-26T07:27:31;10.68;;;7.88;;
58063;SDS011;43851;55.856;37.186;2022-08-26T07:29:58;11.00;;;7.50;;
58063;SDS011;43851;55.856;37.186;2022-08-26T07:32:24;9.73;;;7.60;;
58063;SDS011;43851;55.856;37.186;2022-08-26T07:34:50;12.82;;;8.32;;
58063;SDS011;43851;55.856;37.186;2022-08-26T07:37:16;14.27;;;8.02;;
58063;SDS011;43851;55.856;37.186;2022-08-26T07:39:42;11.85;;;7.75;;
58063;SDS011;43851;55.856;37.186;2022-08-26T07:42:10;12.68;;;8.55;;
58063;SDS011;43851;55.856;37.186;2022-08-26T07:44:38;12.77;;;8.68;;
58063;SDS011;43851;55.856;37.186;2022-08-26T07:47:06;13.25;;;7.95;;
58063;SDS011;43851;55.856;37.186;2022-08-26T07:49:33;13.18;;;7.88;;
58063;SDS011;43851;55.856;37.186;2022-08-26T07:51:59;10.95;;;7.75;;
58063;SDS011;43851;55.856;37.186;2022-08-26T07:54:26;10.38;;;7.53;;
58063;SDS011;43851;55.856;37.186;2022-08-26T07:56:52;14.18;;;8.27;;
58063;SDS011;43851;55.856;37.186;2022-08-26T07:59:19;12.80;;;7.97;;
58063;SDS011;43851;55.856;37.186;2022-08-26T08:01:44;11.90;;;7.68;;
58063;SDS011;43851;55.856;37.186;2022-08-26T08:04:14;15.38;;;8.82;;
58063;SDS011;43851;55.856;37.186;2022-08-26T08:06:43;11.27;;;8.40;;
58063;SDS011;43851;55.856;37.186;2022-08-26T08:09:11;12.27;;;7.68;;
58063;SDS011;43851;55.856;37.186;2022-08-26T08:11:39;10.25;;;8.27;;
58063;SDS011;43851;55.856;37.186;2022-08-26T08:14:05;16.58;;;8.45;;
58063;SDS011;43851;55.856;37.186;2022-08-26T08:16:32;18.25;;;8.45;;
58063;SDS011;43851;55.856;37.186;2022-08-26T08:18:58;12.50;;;8.07;;
58063;SDS011;43851;55.856;37.186;2022-08-26T08:21:24;18.20;;;7.85;;
58063;SDS011;43851;55.856;37.186;2022-08-26T08:23:52;8.93;;;7.65;;
58063;SDS011;43851;55.856;37.186;2022-08-26T08:26:20;12.70;;;8.00;;
58063;SDS011;43851;55.856;37.186;2022-08-26T08:28:47;12.55;;;7.85;;
58063;SDS011;43851;55.856;37.186;2022-08-26T08:31:19;11.25;;;7.50;;
58063;SDS011;43851;55.856;37.186;2022-08-26T08:33:53;14.05;;;7.78;;
58063;SDS011;43851;55.856;37.186;2022-08-26T08:36:19;11.15;;;7.20;;
58063;SDS011;43851;55.856;37.186;2022-08-26T08:38:45;11.98;;;7.68;;
58063;SDS011;43851;55.856;37.186;2022-08-26T08:44:01;11.25;;;8.23;;
58063;SDS011;43851;55.856;37.186;2022-08-26T08:46:35;9.75;;;7.50;;
58063;SDS011;43851;55.856;37.186;2022-08-26T08:49:01;8.57;;;7.32;;
58063;SDS011;43851;55.856;37.186;2022-08-26T08:52:16;9.38;;;7.45;;
58063;SDS011;43851;55.856;37.186;2022-08-26T08:54:25;9.70;;;7.40;;
58063;SDS011;43851;55.856;37.186;2022-08-26T08:56:58;9.43;;;7.38;;
58063;SDS011;43851;55.856;37.186;2022-08-26T08:59:35;8.18;;;6.75;;
58063;SDS011;43851;55.856;37.186;2022-08-26T09:03:02;10.07;;;7.20;;
58063;SDS011;43851;55.856;37.186;2022-08-26T09:05:30;7.90;;;6.95;;
58063;SDS011;43851;55.856;37.186;2022-08-26T09:08:05;14.32;;;7.63;;
58063;SDS011;43851;55.856;37.186;2022-08-26T09:10:54;11.95;;;7.30;;
58063;SDS011;43851;55.856;37.186;2022-08-26T09:13:23;10.02;;;7.40;;
58063;SDS011;43851;55.856;37.186;2022-08-26T09:16:04;8.00;;;7.25;;
58063;SDS011;43851;55.856;37.186;2022-08-26T09:21:53;15.27;;;7.68;;
58063;SDS011;43851;55.856;37.186;2022-08-26T09:24:20;7.90;;;7.03;;
58063;SDS011;43851;55.856;37.186;2022-08-26T09:26:45;10.50;;;6.88;;
58063;SDS011;43851;55.856;37.186;2022-08-26T09:29:22;12.60;;;6.80;;
58063;SDS011;43851;55.856;37.186;2022-08-26T09:31:48;8.60;;;6.40;;
58063;SDS011;43851;55.856;37.186;2022-08-26T09:34:22;10.27;;;7.15;;
58063;SDS011;43851;55.856;37.186;2022-08-26T09:36:58;9.90;;;7.28;;
58063;SDS011;43851;55.856;37.186;2022-08-26T09:39:36;10.45;;;6.75;;
58063;SDS011;43851;55.856;37.186;2022-08-26T09:42:11;12.65;;;7.00;;
58063;SDS011;43851;55.856;37.186;2022-08-26T09:47:36;11.52;;;6.95;;
58063;SDS011;43851;55.856;37.186;2022-08-26T09:50:09;12.90;;;7.75;;
58063;SDS011;43851;55.856;37.186;2022-08-26T09:52:37;9.85;;;7.43;;
58063;SDS011;43851;55.856;37.186;2022-08-26T09:57:31;13.43;;;7.10;;
58063;SDS011;43851;55.856;37.186;2022-08-26T09:59:59;11.68;;;7.15;;
58063;SDS011;43851;55.856;37.186;2022-08-26T10:02:34;10.40;;;6.95;;
58063;SDS011;43851;55.856;37.186;2022-08-26T10:05:06;7.47;;;6.78;;
58063;SDS011;43851;55.856;37.186;2022-08-26T10:07:36;13.88;;;6.45;;
58063;SDS011;43851;55.856;37.186;2022-08-26T10:10:13;9.32;;;6.78;;
58063;SDS011;43851;55.856;37.186;2022-08-26T10:18:54;7.60;;;6.88;;
58063;SDS011;43851;55.856;37.186;2022-08-26T10:21:26;9.90;;;6.33;;
58063;SDS011;43851;55.856;37.186;2022-08-26T10:23:59;10.07;;;6.72;;
58063;SDS011;43851;55.856;37.186;2022-08-26T10:27:01;10.63;;;6.90;;
58063;SDS011;43851;55.856;37.186;2022-08-26T10:29:32;13.63;;;6.70;;
58063;SDS011;43851;55.856;37.186;2022-08-26T10:32:25;8.60;;;6.68;;
58063;SDS011;43851;55.856;37.186;2022-08-26T10:35:00;10.93;;;7.45;;
58063;SDS011;43851;55.856;37.186;2022-08-26T10:37:35;7.90;;;7.10;;
58063;SDS011;43851;55.856;37.186;2022-08-26T10:40:48;15.43;;;7.43;;
58063;SDS011;43851;55.856;37.186;2022-08-26T10:42:56;13.25;;;7.25;;
58063;SDS011;43851;55.856;37.186;2022-08-26T10:45:28;10.18;;;6.60;;
58063;SDS011;43851;55.856;37.186;2022-08-26T10:48:06;9.85;;;6.18;;
58063;SDS011;43851;55.856;37.186;2022-08-26T10:50:37;11.88;;;6.72;;
58063;SDS011;43851;55.856;37.186;2022-08-26T10:53:16;9.23;;;5.55;;
58063;SDS011;43851;55.856;37.186;2022-08-26T10:58:40;15.55;;;6.47;;
58063;SDS011;43851;55.856;37.186;2022-08-26T11:06:46;10.32;;;6.20;;
58063;SDS011;43851;55.856;37.186;2022-08-26T11:09:41;12.13;;;6.00;;
58063;SDS011;43851;55.856;37.186;2022-08-26T11:12:45;9.68;;;6.38;;
58063;SDS011;43851;55.856;37.186;2022-08-26T11:22:46;11.57;;;6.07;;
58063;SDS011;43851;55.856;37.186;2022-08-26T11:25:17;9.85;;;6.70;;
58063;SDS011;43851;55.856;37.186;2022-08-26T11:32:47;8.95;;;6.15;;
58063;SDS011;43851;55.856;37.186;2022-08-26T11:37:46;8.52;;;5.97;;
58063;SDS011;43851;55.856;37.186;2022-08-26T11:40:27;10.40;;;6.35;;
58063;SDS011;43851;55.856;37.186;2022-08-26T11:45:44;12.48;;;6.43;;
58063;SDS011;43851;55.856;37.186;2022-08-26T11:51:03;8.23;;;6.10;;
58063;SDS011;43851;55.856;37.186;2022-08-26T11:53:36;8.27;;;6.40;;
58063;SDS011;43851;55.856;37.186;2022-08-26T11:56:08;8.38;;;7.18;;
58063;SDS011;43851;55.856;37.186;2022-08-26T11:58:45;10.18;;;6.63;;
58063;SDS011;43851;55.856;37.186;2022-08-26T12:01:20;12.23;;;6.68;;
58063;SDS011;43851;55.856;37.186;2022-08-26T12:03:51;7.68;;;6.00;;
58063;SDS011;43851;55.856;37.186;2022-08-26T12:08:46;8.77;;;6.72;;
58063;SDS011;43851;55.856;37.186;2022-08-26T12:11:19;7.88;;;6.78;;
58063;SDS011;43851;55.856;37.186;2022-08-26T12:16:41;7.15;;;6.03;;
58063;SDS011;43851;55.856;37.186;2022-08-26T12:19:24;11.70;;;7.15;;
58063;SDS011;43851;55.856;37.186;2022-08-26T12:24:46;8.90;;;6.30;;
58063;SDS011;43851;55.856;37.186;2022-08-26T12:27:17;12.27;;;7.93;;
58063;SDS011;43851;55.856;37.186;2022-08-26T12:30:07;9.50;;;6.57;;
58063;SDS011;43851;55.856;37.186;2022-08-26T12:32:44;11.55;;;8.40;;
58063;SDS011;43851;55.856;37.186;2022-08-26T12:35:18;11.32;;;6.03;;
58063;SDS011;43851;55.856;37.186;2022-08-26T12:37:50;9.18;;;6.07;;
58063;SDS011;43851;55.856;37.186;2022-08-26T12:40:24;9.85;;;6.70;;
58063;SDS011;43851;55.856;37.186;2022-08-26T12:43:02;7.90;;;6.10;;
58063;SDS011;43851;55.856;37.186;2022-08-26T12:45:40;7.15;;;6.10;;
58063;SDS011;43851;55.856;37.186;2022-08-26T12:48:42;8.32;;;5.82;;
58063;SDS011;43851;55.856;37.186;2022-08-26T12:51:05;13.45;;;5.80;;
58063;SDS011;43851;55.856;37.186;2022-08-26T12:53:34;9.63;;;5.95;;
58063;SDS011;43851;55.856;37.186;2022-08-26T13:01:49;9.60;;;6.07;;
58063;SDS011;43851;55.856;37.186;2022-08-26T13:09:39;7.43;;;5.72;;
58063;SDS011;43851;55.856;37.186;2022-08-26T13:12:05;8.10;;;6.32;;
58063;SDS011;43851;55.856;37.186;2022-08-26T13:14:31;8.82;;;6.18;;
58063;SDS011;43851;55.856;37.186;2022-08-26T13:16:57;10.90;;;6.10;;
58063;SDS011;43851;55.856;37.186;2022-08-26T13:19:23;8.80;;;5.50;;
58063;SDS011;43851;55.856;37.186;2022-08-26T13:21:53;8.35;;;5.70;;
58063;SDS011;43851;55.856;37.186;2022-08-26T13:24:25;10.73;;;5.32;;
58063;SDS011;43851;55.856;37.186;2022-08-26T13:27:00;7.57;;;5.32;;
58063;SDS011;43851;55.856;37.186;2022-08-26T13:29:40;8.38;;;4.90;;
58063;SDS011;43851;55.856;37.186;2022-08-26T13:32:06;7.78;;;5.22;;
58063;SDS011;43851;55.856;37.186;2022-08-26T13:34:33;8.52;;;5.38;;
58063;SDS011;43851;55.856;37.186;2022-08-26T13:37:05;6.68;;;5.15;;
58063;SDS011;43851;55.856;37.186;2022-08-26T13:39:31;8.38;;;5.10;;
58063;SDS011;43851;55.856;37.186;2022-08-26T13:42:09;7.55;;;5.80;;
58063;SDS011;43851;55.856;37.186;2022-08-26T13:44:45;11.48;;;5.60;;
58063;SDS011;43851;55.856;37.186;2022-08-26T13:47:31;8.98;;;7.80;;
58063;SDS011;43851;55.856;37.186;2022-08-26T13:49:57;8.82;;;6.43;;
58063;SDS011;43851;55.856;37.186;2022-08-26T13:52:23;13.05;;;6.68;;
58063;SDS011;43851;55.856;37.186;2022-08-26T13:54:50;14.93;;;10.45;;
58063;SDS011;43851;55.856;37.186;2022-08-26T13:57:18;14.57;;;8.82;;
58063;SDS011;43851;55.856;37.186;2022-08-26T13:59:44;10.88;;;8.57;;
58063;SDS011;43851;55.856;37.186;2022-08-26T14:02:10;12.50;;;8.23;;
58063;SDS011;43851;55.856;37.186;2022-08-26T14:04:36;8.45;;;6.40;;
58063;SDS011;43851;55.856;37.186;2022-08-26T14:07:01;6.32;;;5.72;;
58063;SDS011;43851;55.856;37.186;2022-08-26T14:09:29;7.25;;;5.65;;
58063;SDS011;43851;55.856;37.186;2022-08-26T14:11:55;8.15;;;5.57;;
58063;SDS011;43851;55.856;37.186;2022-08-26T14:14:24;11.70;;;5.57;;
58063;SDS011;43851;55.856;37.186;2022-08-26T14:16:52;8.05;;;5.00;;
58063;SDS011;43851;55.856;37.186;2022-08-26T14:19:18;8.48;;;4.82;;
58063;SDS011;43851;55.856;37.186;2022-08-26T14:21:44;8.63;;;5.22;;
58063;SDS011;43851;55.856;37.186;2022-08-26T14:24:10;10.30;;;5.00;;
58063;SDS011;43851;55.856;37.186;2022-08-26T14:26:36;8.32;;;4.75;;
58063;SDS011;43851;55.856;37.186;2022-08-26T14:29:02;8.02;;;4.70;;
58063;SDS011;43851;55.856;37.186;2022-08-26T14:31:33;7.45;;;5.70;;
58063;SDS011;43851;55.856;37.186;2022-08-26T14:34:03;7.38;;;5.68;;
58063;SDS011;43851;55.856;37.186;2022-08-26T14:36:31;10.55;;;5.57;;
58063;SDS011;43851;55.856;37.186;2022-08-26T14:38:58;10.77;;;5.57;;
58063;SDS011;43851;55.856;37.186;2022-08-26T14:41:28;7.60;;;4.80;;
58063;SDS011;43851;55.856;37.186;2022-08-26T14:44:02;5.90;;;4.63;;
58063;SDS011;43851;55.856;37.186;2022-08-26T14:46:37;9.07;;;5.18;;
58063;SDS011;43851;55.856;37.186;2022-08-26T14:49:07;11.68;;;5.60;;
58063;SDS011;43851;55.856;37.186;2022-08-26T14:51:33;13.95;;;10.13;;
58063;SDS011;43851;55.856;37.186;2022-08-26T14:53:59;9.88;;;5.97;;
58063;SDS011;43851;55.856;37.186;2022-08-26T14:56:47;8.63;;;5.65;;
58063;SDS011;43851;55.856;37.186;2022-08-26T14:59:18;9.05;;;6.55;;
58063;SDS011;43851;55.856;37.186;2022-08-26T15:01:50;9.27;;;6.40;;
58063;SDS011;43851;55.856;37.186;2022-08-26T15:04:17;10.77;;;6.75;;
58063;SDS011;43851;55.856;37.186;2022-08-26T15:06:44;12.15;;;6.13;;
58063;SDS011;43851;55.856;37.186;2022-08-26T15:09:10;12.43;;;6.57;;
58063;SDS011;43851;55.856;37.186;2022-08-26T15:11:37;8.05;;;6.25;;
58063;SDS011;43851;55.856;37.186;2022-08-26T15:14:03;8.35;;;5.97;;
58063;SDS011;43851;55.856;37.186;2022-08-26T15:16:33;11.85;;;5.95;;
58063;SDS011;43851;55.856;37.186;2022-08-26T15:19:02;12.43;;;6.38;;
58063;SDS011;43851;55.856;37.186;2022-08-26T15:21:32;7.45;;;5.45;;
58063;SDS011;43851;55.856;37.186;2022-08-26T15:24:04;9.75;;;6.03;;
58063;SDS011;43851;55.856;37.186;2022-08-26T15:26:36;6.78;;;5.70;;
58063;SDS011;43851;55.856;37.186;2022-08-26T15:29:10;7.82;;;5.70;;
58063;SDS011;43851;55.856;37.186;2022-08-26T15:31:40;8.23;;;5.75;;
58063;SDS011;43851;55.856;37.186;2022-08-26T15:34:09;10.07;;;6.57;;
58063;SDS011;43851;55.856;37.186;2022-08-26T15:36:36;13.73;;;6.13;;
58063;SDS011;43851;55.856;37.186;2022-08-26T15:39:04;9.93;;;6.05;;